Time;durP1;ratioP1;P1;durP2;ratioP2;P2;SDS_P1;SDS_P2;PMS_P1;PMS_P2;Temp;Humidity;BMP_temperature;BMP_pressure;BME280_temperature;BME280_humidity;BME280_pressure;Samples;Min_cycle;Max_cycle;Signal;HPM_P1;HPM_P2
2023/12/10 00:00:07;;;;;;;;;;;7.30;99.90;;;;;;5045601;28;19961;-70
2023/12/10 00:02:33;;;;;;;;;;;7.30;99.90;;;;;;5052564;28;19997;-70
2023/12/10 00:04:58;;;;;;;;;;;7.40;99.90;;;;;;5049894;28;19931;-70
2023/12/10 00:07:24;;;;;;;;;;;7.40;99.90;;;;;;5030342;28;19912;-70
2023/12/10 00:09:52;;;;;;;;;;;7.50;99.90;;;;;;5044995;28;19916;-70
2023/12/10 00:12:18;;;;;;;;;;;7.50;99.90;;;;;;5045313;28;19916;-70
2023/12/10 00:14:45;;;;;;;;;;;7.40;99.90;;;;;;5044874;28;19944;-70
2023/12/10 00:17:11;;;;;;;;;;;7.50;99.90;;;;;;5046139;28;19917;-70
2023/12/10 00:19:36;;;;;;;;;;;7.60;99.90;;;;;;5044260;28;20377;-70
2023/12/10 00:22:02;;;;;;;;;;;7.50;99.90;;;;;;5043810;28;19916;-70
2023/12/10 00:24:30;;;;;;;;;;;7.60;99.90;;;;;;5044247;28;19916;-70
2023/12/10 00:26:55;;;;;;;;;;;7.60;99.90;;;;;;5043442;28;19924;-70
2023/12/10 00:29:20;;;;;;;;;;;7.70;99.90;;;;;;5045231;28;19916;-70
2023/12/10 00:31:46;;;;;;;;;;;7.70;99.90;;;;;;5043602;28;19995;-70
2023/12/10 00:34:15;;;;;;;;;;;7.70;99.90;;;;;;5044530;28;19927;-70
2023/12/10 00:36:40;;;;;;;;;;;7.80;99.90;;;;;;5044340;28;21907;-70
2023/12/10 00:39:06;;;;;;;;;;;7.80;99.90;;;;;;5045715;28;20389;-70
2023/12/10 00:41:32;;;;;;;;;;;7.90;99.90;;;;;;5045052;28;19913;-70
2023/12/10 00:43:57;;;;;;;;;;;7.90;99.90;;;;;;5046717;28;20029;-70
2023/12/10 00:46:23;;;;;;;;;;;7.90;99.90;;;;;;5043108;28;20625;-70
2023/12/10 00:48:48;;;;;;;;;;;7.90;99.90;;;;;;5075894;22;20635;-70
2023/12/10 00:51:17;;;;;;;;;;;8.00;99.90;;;;;;5069020;28;19923;-70
2023/12/10 00:53:43;;;;;;;;;;;8.00;99.90;;;;;;5069896;28;19915;-70
2023/12/10 00:56:11;;;;;;;;;;;8.00;99.90;;;;;;5068107;28;20272;-70
2023/12/10 00:58:37;;;;;;;;;;;8.10;99.90;;;;;;5066534;28;19932;-70
2023/12/10 01:01:02;;;;;;;;;;;8.20;99.90;;;;;;5065559;28;20317;-70
2023/12/10 01:03:28;;;;;;;;;;;8.30;99.90;;;;;;5066490;28;20370;-70
2023/12/10 01:05:53;;;;;;;;;;;8.30;99.90;;;;;;5063723;28;19918;-70
2023/12/10 01:08:18;;;;;;;;;;;8.40;99.90;;;;;;5064979;28;20416;-70
2023/12/10 01:10:44;;;;;;;;;;;8.50;99.90;;;;;;5062470;28;19959;-70
2023/12/10 01:13:10;;;;;;;;;;;8.50;99.90;;;;;;5070408;28;20020;-70
2023/12/10 01:15:35;;;;;;;;;;;8.70;99.90;;;;;;5064160;28;19962;-70
2023/12/10 01:18:01;;;;;;;;;;;8.70;99.90;;;;;;5064869;28;19916;-70
2023/12/10 01:20:30;;;;;;;;;;;8.80;99.90;;;;;;5062416;28;19916;-70
2023/12/10 01:22:56;;;;;;;;;;;8.80;99.90;;;;;;5060881;28;19915;-70
2023/12/10 01:25:22;;;;;;;;;;;8.80;99.90;;;;;;5064158;28;19920;-70
2023/12/10 01:27:47;;;;;;;;;;;8.90;99.90;;;;;;5063184;28;19963;-70
2023/12/10 01:30:13;;;;;;;;;;;8.80;99.90;;;;;;5064282;28;20018;-70
2023/12/10 01:32:40;;;;;;;;;;;8.90;99.90;;;;;;5066228;28;19970;-70
2023/12/10 01:35:05;;;;;;;;;;;8.90;99.90;;;;;;5067057;28;19985;-70
2023/12/10 01:37:31;;;;;;;;;;;9.00;99.90;;;;;;5069389;28;20606;-70
2023/12/10 01:39:56;;;;;;;;;;;9.00;99.90;;;;;;5065960;28;20296;-70
2023/12/10 01:42:22;;;;;;;;;;;9.00;99.90;;;;;;5068203;28;19981;-70
2023/12/10 01:44:47;;;;;;;;;;;9.00;99.90;;;;;;5067852;28;19939;-70
2023/12/10 01:47:13;;;;;;;;;;;9.00;99.90;;;;;;5070069;28;20374;-70
2023/12/10 01:49:39;;;;;;;;;;;9.00;99.90;;;;;;5067636;28;19969;-70
2023/12/10 01:52:05;;;;;;;;;;;9.00;99.90;;;;;;5065629;28;19916;-70
2023/12/10 01:54:30;;;;;;;;;;;9.00;99.90;;;;;;5065491;28;20036;-70
2023/12/10 01:56:56;;;;;;;;;;;9.00;99.90;;;;;;5064931;28;20282;-70
2023/12/10 01:59:22;;;;;;;;;;;9.10;99.90;;;;;;5068687;28;19916;-71
2023/12/10 02:01:48;;;;;;;;;;;9.10;99.90;;;;;;5062104;28;20480;-73
2023/12/10 02:04:17;;;;;;;;;;;9.10;99.90;;;;;;5063785;28;19999;-73
2023/12/10 02:06:43;;;;;;;;;;;9.10;99.90;;;;;;5066483;28;20251;-73
2023/12/10 02:09:12;;;;;;;;;;;9.10;99.90;;;;;;5065867;28;19924;-72
2023/12/10 02:11:39;;;;;;;;;;;9.10;99.90;;;;;;5065566;28;20394;-73
2023/12/10 02:14:04;;;;;;;;;;;9.10;99.90;;;;;;5050656;28;20283;-73
2023/12/10 02:16:30;;;;;;;;;;;9.10;99.90;;;;;;5064042;28;19979;-73
2023/12/10 02:18:55;;;;;;;;;;;9.10;99.90;;;;;;5046081;28;19963;-73
2023/12/10 02:21:21;;;;;;;;;;;9.10;99.90;;;;;;5065869;28;20537;-72
2023/12/10 02:23:46;;;;;;;;;;;9.10;99.90;;;;;;5065702;28;19999;-73
2023/12/10 02:26:12;;;;;;;;;;;9.10;99.90;;;;;;5065046;28;20069;-73
2023/12/10 02:28:37;;;;;;;;;;;9.10;99.90;;;;;;5064391;28;20263;-73
2023/12/10 02:31:03;;;;;;;;;;;9.30;99.90;;;;;;5064864;28;20715;-73
2023/12/10 02:33:28;;;;;;;;;;;9.20;99.90;;;;;;5065902;28;20447;-73
2023/12/10 02:35:55;;;;;;;;;;;9.10;99.90;;;;;;5062671;28;19916;-73
2023/12/10 02:38:21;;;;;;;;;;;9.20;99.90;;;;;;5062664;28;19931;-72
2023/12/10 02:40:47;;;;;;;;;;;9.10;99.90;;;;;;5063350;28;20394;-73
2023/12/10 02:43:12;;;;;;;;;;;9.10;99.90;;;;;;5062629;28;19915;-72
2023/12/10 02:45:40;;;;;;;;;;;9.00;99.90;;;;;;5061639;28;20658;-73
2023/12/10 02:48:06;;;;;;;;;;;9.10;99.90;;;;;;5062735;28;19919;-72
2023/12/10 02:50:31;;;;;;;;;;;9.00;99.90;;;;;;5062309;28;20413;-72
2023/12/10 02:52:57;;;;;;;;;;;9.00;99.90;;;;;;5063071;28;19946;-72
2023/12/10 02:55:22;;;;;;;;;;;9.00;99.90;;;;;;5062640;28;19945;-73
2023/12/10 02:57:48;;;;;;;;;;;9.00;99.90;;;;;;5063197;28;19912;-73
2023/12/10 03:00:15;;;;;;;;;;;9.00;99.90;;;;;;5060785;28;20771;-73
2023/12/10 03:02:43;;;;;;;;;;;9.00;99.90;;;;;;5064003;28;19919;-72
2023/12/10 03:05:09;;;;;;;;;;;9.00;99.90;;;;;;5063555;28;22791;-72
2023/12/10 03:07:35;;;;;;;;;;;9.10;99.90;;;;;;5065351;28;20709;-73
2023/12/10 03:10:00;;;;;;;;;;;9.10;99.90;;;;;;5065297;28;20496;-73
2023/12/10 03:12:26;;;;;;;;;;;9.10;99.90;;;;;;5061933;28;19935;-74
2023/12/10 03:14:51;;;;;;;;;;;9.10;99.90;;;;;;5064123;28;20472;-72
2023/12/10 03:17:17;;;;;;;;;;;9.10;99.90;;;;;;5065862;28;20477;-73
2023/12/10 03:19:46;;;;;;;;;;;9.10;99.90;;;;;;5063133;28;20013;-74
2023/12/10 03:22:11;;;;;;;;;;;9.10;99.90;;;;;;5064986;28;20373;-73
2023/12/10 03:24:39;;;;;;;;;;;9.10;99.90;;;;;;5044986;28;19919;-72
2023/12/10 03:27:04;;;;;;;;;;;9.20;99.90;;;;;;5063571;28;19916;-72
2023/12/10 03:29:30;;;;;;;;;;;9.20;99.90;;;;;;5047848;28;19923;-73
2023/12/10 03:31:56;;;;;;;;;;;9.10;99.90;;;;;;5064080;28;21356;-72
2023/12/10 03:34:21;;;;;;;;;;;9.20;99.90;;;;;;5065725;28;19916;-73
2023/12/10 03:36:47;;;;;;;;;;;9.20;99.90;;;;;;5063077;28;20677;-73
2023/12/10 03:39:12;;;;;;;;;;;9.10;99.90;;;;;;5046799;28;19923;-73
2023/12/10 03:41:38;;;;;;;;;;;9.20;99.90;;;;;;5063925;28;19912;-73
2023/12/10 03:44:05;;;;;;;;;;;9.20;99.90;;;;;;5062720;28;19916;-73
2023/12/10 03:46:31;;;;;;;;;;;9.20;99.90;;;;;;5063244;28;20800;-73
2023/12/10 03:48:57;;;;;;;;;;;9.20;99.90;;;;;;5060407;28;20821;-73
2023/12/10 03:51:22;;;;;;;;;;;9.20;99.90;;;;;;5063562;28;19949;-73
2023/12/10 03:53:47;;;;;;;;;;;9.20;99.90;;;;;;5064300;28;19916;-72
2023/12/10 03:56:15;;;;;;;;;;;9.20;99.90;;;;;;5042136;28;19911;-72
2023/12/10 03:58:41;;;;;;;;;;;9.20;99.90;;;;;;5062953;28;19916;-73
2023/12/10 04:01:06;;;;;;;;;;;9.20;99.90;;;;;;5043803;28;19922;-73
2023/12/10 04:03:33;;;;;;;;;;;9.20;99.90;;;;;;5046164;28;19916;-73
2023/12/10 04:06:00;;;;;;;;;;;9.20;99.90;;;;;;5062765;28;19920;-73
2023/12/10 04:08:27;;;;;;;;;;;9.20;99.90;;;;;;5064775;28;19916;-72
2023/12/10 04:10:53;;;;;;;;;;;9.20;99.90;;;;;;5064245;28;19947;-72
2023/12/10 04:13:18;;;;;;;;;;;9.30;99.90;;;;;;5063361;28;20003;-72
2023/12/10 04:15:46;;;;;;;;;;;9.30;99.90;;;;;;5062925;28;20547;-73
2023/12/10 04:18:14;;;;;;;;;;;9.20;99.90;;;;;;5065470;28;19923;-72
2023/12/10 04:20:41;;;;;;;;;;;9.20;99.90;;;;;;5063045;28;20003;-72
2023/12/10 04:23:06;;;;;;;;;;;9.20;99.90;;;;;;5064462;28;19923;-73
2023/12/10 04:25:32;;;;;;;;;;;9.20;99.90;;;;;;5063013;28;19919;-72
2023/12/10 04:27:57;;;;;;;;;;;9.30;99.90;;;;;;5063955;28;19934;-72
2023/12/10 04:30:24;;;;;;;;;;;9.20;99.90;;;;;;5063980;28;20592;-73
2023/12/10 04:32:50;;;;;;;;;;;9.20;99.90;;;;;;5063329;28;19915;-72
2023/12/10 04:35:15;;;;;;;;;;;9.20;99.90;;;;;;5063509;28;19923;-72
2023/12/10 04:37:41;;;;;;;;;;;9.20;99.90;;;;;;5063695;28;19915;-73
2023/12/10 04:40:07;;;;;;;;;;;9.20;99.90;;;;;;5064384;28;20313;-72
2023/12/10 04:42:32;;;;;;;;;;;9.10;99.90;;;;;;5062599;28;19980;-73
2023/12/10 04:44:58;;;;;;;;;;;9.20;99.90;;;;;;5061643;28;19946;-72
2023/12/10 04:47:23;;;;;;;;;;;9.10;99.90;;;;;;5063364;28;19966;-73
2023/12/10 04:49:51;;;;;;;;;;;9.10;99.90;;;;;;5064080;28;19927;-72
2023/12/10 04:52:17;;;;;;;;;;;9.10;99.90;;;;;;5064312;28;19916;-73
2023/12/10 04:54:43;;;;;;;;;;;9.00;99.90;;;;;;5060980;28;19911;-72
2023/12/10 04:57:08;;;;;;;;;;;9.10;99.90;;;;;;5063067;28;19920;-72
2023/12/10 04:59:35;;;;;;;;;;;9.00;99.90;;;;;;5062531;28;21778;-73
2023/12/10 05:02:01;;;;;;;;;;;9.00;99.90;;;;;;5059495;28;19916;-73
2023/12/10 05:04:26;;;;;;;;;;;9.00;99.90;;;;;;5060778;28;19912;-73
2023/12/10 05:06:52;;;;;;;;;;;9.00;99.90;;;;;;5046793;28;19923;-72
2023/12/10 05:09:17;;;;;;;;;;;9.00;99.90;;;;;;5067107;28;19943;-73
2023/12/10 05:11:43;;;;;;;;;;;8.90;99.90;;;;;;5066761;28;19915;-72
2023/12/10 05:14:08;;;;;;;;;;;9.00;99.90;;;;;;5068948;28;19966;-73
2023/12/10 05:16:34;;;;;;;;;;;8.90;99.90;;;;;;5064596;28;19942;-72
2023/12/10 05:19:00;;;;;;;;;;;8.90;99.90;;;;;;5067106;28;19916;-72
2023/12/10 05:21:25;;;;;;;;;;;9.00;99.90;;;;;;5066383;28;20701;-73
2023/12/10 05:23:51;;;;;;;;;;;8.90;99.90;;;;;;5067564;28;19916;-72
2023/12/10 05:26:16;;;;;;;;;;;8.90;99.90;;;;;;5066335;28;19919;-73
2023/12/10 05:28:44;;;;;;;;;;;8.90;99.90;;;;;;5067817;28;21573;-73
2023/12/10 05:31:10;;;;;;;;;;;8.90;99.90;;;;;;5066101;28;20095;-72
2023/12/10 05:33:35;;;;;;;;;;;9.00;99.90;;;;;;5065965;28;21012;-73
2023/12/10 05:36:02;;;;;;;;;;;9.00;99.90;;;;;;5068092;28;19912;-72
2023/12/10 05:38:27;;;;;;;;;;;9.00;99.90;;;;;;5066329;28;20066;-74
2023/12/10 05:40:53;;;;;;;;;;;9.00;99.90;;;;;;5067227;28;19916;-73
2023/12/10 05:43:18;;;;;;;;;;;9.00;99.90;;;;;;5067476;28;20362;-72
2023/12/10 05:45:44;;;;;;;;;;;9.00;99.90;;;;;;5066471;28;19920;-73
2023/12/10 05:48:09;;;;;;;;;;;8.90;99.90;;;;;;5066916;28;19920;-73
2023/12/10 05:50:37;;;;;;;;;;;9.00;99.90;;;;;;5065695;28;20794;-72
2023/12/10 05:53:05;;;;;;;;;;;9.00;99.90;;;;;;5048768;28;20374;-72
2023/12/10 05:55:31;;;;;;;;;;;9.00;99.90;;;;;;5066739;28;19971;-72
2023/12/10 05:57:56;;;;;;;;;;;9.00;99.90;;;;;;5067623;28;20019;-72
2023/12/10 06:00:22;;;;;;;;;;;9.10;99.90;;;;;;5064614;28;20164;-72
2023/12/10 06:02:47;;;;;;;;;;;9.00;99.90;;;;;;5049800;28;20002;-72
2023/12/10 06:05:13;;;;;;;;;;;9.10;99.90;;;;;;5048300;28;19920;-72
2023/12/10 06:07:41;;;;;;;;;;;9.00;99.90;;;;;;5050120;28;19961;-72
2023/12/10 06:10:07;;;;;;;;;;;9.00;99.90;;;;;;5065388;28;19916;-72
2023/12/10 06:12:35;;;;;;;;;;;9.00;99.90;;;;;;5067913;28;19961;-72
2023/12/10 06:15:00;;;;;;;;;;;9.00;99.90;;;;;;5065977;28;19916;-73
2023/12/10 06:17:26;;;;;;;;;;;9.00;99.90;;;;;;5066087;28;20455;-72
2023/12/10 06:19:51;;;;;;;;;;;9.00;99.90;;;;;;5065316;28;19916;-73
2023/12/10 06:22:17;;;;;;;;;;;9.00;99.90;;;;;;5064897;28;19918;-73
2023/12/10 06:24:42;;;;;;;;;;;9.00;99.90;;;;;;5048927;28;19916;-72
2023/12/10 06:27:08;;;;;;;;;;;8.90;99.90;;;;;;5068094;28;19916;-72
2023/12/10 06:29:33;;;;;;;;;;;8.80;99.90;;;;;;5066433;28;20473;-72
2023/12/10 06:31:59;;;;;;;;;;;8.80;99.90;;;;;;5063202;28;20010;-73
2023/12/10 06:34:24;;;;;;;;;;;8.80;99.90;;;;;;5067024;28;19915;-74
2023/12/10 06:36:50;;;;;;;;;;;8.80;99.90;;;;;;5063846;28;19915;-73
2023/12/10 06:39:17;;;;;;;;;;;8.80;99.90;;;;;;5069307;28;19912;-73
2023/12/10 06:41:43;;;;;;;;;;;8.80;99.90;;;;;;5064894;28;19912;-72
2023/12/10 06:44:09;;;;;;;;;;;8.80;99.90;;;;;;5065323;28;19927;-73
2023/12/10 06:49:06;;;;;;;;;;;8.70;99.90;;;;;;5004526;28;19979;-71
2023/12/10 06:51:32;;;;;;;;;;;8.70;99.90;;;;;;5005603;28;19921;-72
2023/12/10 06:53:57;;;;;;;;;;;8.70;99.90;;;;;;5005691;28;20019;-72
2023/12/10 06:56:23;;;;;;;;;;;8.70;99.90;;;;;;5007710;28;19917;-72
2023/12/10 06:58:48;;;;;;;;;;;8.70;99.90;;;;;;5007910;28;19959;-72
2023/12/10 07:01:16;;;;;;;;;;;8.60;99.90;;;;;;4986143;28;20648;-72
2023/12/10 07:03:42;;;;;;;;;;;8.60;99.90;;;;;;5007946;28;19921;-72
2023/12/10 07:06:07;;;;;;;;;;;8.60;99.90;;;;;;5006180;28;19921;-72
2023/12/10 07:08:33;;;;;;;;;;;8.60;99.90;;;;;;5004810;28;20338;-72
2023/12/10 07:12:11;;;;;;;;;;;8.60;99.90;;;;;;5056609;27;20416;-70
2023/12/10 07:14:36;;;;;;;;;;;8.60;99.90;;;;;;5061972;28;19920;-70
2023/12/10 07:17:02;;;;;;;;;;;8.60;99.90;;;;;;5058817;28;20434;-70
2023/12/10 07:19:27;;;;;;;;;;;8.60;99.90;;;;;;5060369;28;19924;-70
2023/12/10 07:21:55;;;;;;;;;;;8.60;99.90;;;;;;5059712;28;22468;-70
2023/12/10 07:24:21;;;;;;;;;;;8.60;99.90;;;;;;5052685;28;20337;-70
2023/12/10 07:26:47;;;;;;;;;;;8.60;99.90;;;;;;5061267;28;19916;-70
2023/12/10 07:29:13;;;;;;;;;;;8.60;99.90;;;;;;5060005;28;20223;-70
2023/12/10 07:31:39;;;;;;;;;;;8.50;99.90;;;;;;5060931;28;20430;-70
2023/12/10 07:34:04;;;;;;;;;;;8.60;99.90;;;;;;5060499;28;20051;-70
2023/12/10 07:36:30;;;;;;;;;;;8.60;99.90;;;;;;5061086;28;20500;-71
2023/12/10 07:38:55;;;;;;;;;;;8.60;99.90;;;;;;5062473;28;19931;-70
2023/12/10 07:41:21;;;;;;;;;;;8.60;99.90;;;;;;5059207;28;19921;-70
2023/12/10 07:43:49;;;;;;;;;;;8.60;99.90;;;;;;5062155;28;20054;-70
2023/12/10 07:46:16;;;;;;;;;;;8.60;99.90;;;;;;5059567;28;19916;-70
2023/12/10 07:48:42;;;;;;;;;;;8.60;99.90;;;;;;5066683;28;19948;-70
2023/12/10 07:51:07;;;;;;;;;;;8.60;99.90;;;;;;5062207;28;20177;-70
2023/12/10 07:53:33;;;;;;;;;;;8.60;99.90;;;;;;5063650;28;19916;-70
2023/12/10 07:55:58;;;;;;;;;;;8.60;99.90;;;;;;5060397;28;19919;-70
2023/12/10 07:58:24;;;;;;;;;;;8.60;99.90;;;;;;5063811;28;19965;-70
2023/12/10 08:00:49;;;;;;;;;;;8.60;99.90;;;;;;5058935;28;20845;-70
2023/12/10 08:03:17;;;;;;;;;;;8.60;99.90;;;;;;5058058;28;19959;-70
2023/12/10 08:05:43;;;;;;;;;;;8.60;99.90;;;;;;5059200;28;19921;-70
2023/12/10 08:08:09;;;;;;;;;;;8.60;99.90;;;;;;5059574;28;19927;-71
2023/12/10 08:10:34;;;;;;;;;;;8.60;99.90;;;;;;5055489;28;19920;-70
2023/12/10 08:13:00;;;;;;;;;;;8.60;99.90;;;;;;5058327;28;20848;-71
2023/12/10 08:15:26;;;;;;;;;;;8.60;99.90;;;;;;5058322;28;20072;-70
2023/12/10 08:17:52;;;;;;;;;;;8.60;99.90;;;;;;5075300;28;19985;-71
2023/12/10 08:20:17;;;;;;;;;;;8.70;99.90;;;;;;5063850;28;20090;-70
2023/12/10 08:22:42;;;;;;;;;;;8.70;99.90;;;;;;5048293;28;19920;-70
2023/12/10 08:25:13;;;;;;;;;;;8.70;99.90;;;;;;5048154;28;19917;-69
2023/12/10 08:27:41;;;;;;;;;;;8.70;99.90;;;;;;5046417;28;20046;-72
2023/12/10 08:30:07;;;;;;;;;;;8.80;99.90;;;;;;5043658;28;20329;-70
2023/12/10 08:32:33;;;;;;;;;;;8.70;99.90;;;;;;5044506;28;19921;-70
2023/12/10 08:34:58;;;;;;;;;;;8.80;99.90;;;;;;5043628;28;20244;-71
2023/12/10 08:37:24;;;;;;;;;;;8.80;99.90;;;;;;5043240;28;19924;-70
2023/12/10 08:39:49;;;;;;;;;;;8.70;99.90;;;;;;5041728;28;19957;-70
2023/12/10 08:42:15;;;;;;;;;;;8.70;99.90;;;;;;5043713;28;19920;-70
2023/12/10 08:44:41;;;;;;;;;;;8.70;99.90;;;;;;5040622;28;19921;-71
2023/12/10 08:47:06;;;;;;;;;;;8.70;99.90;;;;;;5075975;27;20067;-71
2023/12/10 08:49:32;;;;;;;;;;;8.80;99.90;;;;;;5043588;28;19920;-70
2023/12/10 08:51:57;;;;;;;;;;;8.70;99.90;;;;;;5040812;28;19947;-70
2023/12/10 08:54:27;;;;;;;;;;;8.70;99.90;;;;;;5046018;28;21731;-71
2023/12/10 08:56:53;;;;;;;;;;;8.70;99.90;;;;;;5043140;28;19920;-71
2023/12/10 08:59:18;;;;;;;;;;;8.70;99.90;;;;;;5045292;28;20354;-71
2023/12/10 09:01:44;;;;;;;;;;;8.70;99.90;;;;;;5042941;28;20328;-71
2023/12/10 09:04:12;;;;;;;;;;;8.70;99.90;;;;;;5044886;28;19960;-71
2023/12/10 09:06:37;;;;;;;;;;;8.70;99.90;;;;;;5041734;28;20221;-70
2023/12/10 09:09:03;;;;;;;;;;;8.70;99.90;;;;;;5044655;28;20073;-71
2023/12/10 09:11:30;;;;;;;;;;;8.70;99.90;;;;;;5043514;28;19959;-71
2023/12/10 09:13:56;;;;;;;;;;;8.70;99.90;;;;;;5042388;28;19920;-70
2023/12/10 09:16:22;;;;;;;;;;;8.80;99.90;;;;;;5043179;28;20419;-71
2023/12/10 09:18:48;;;;;;;;;;;8.80;99.90;;;;;;5042648;28;19931;-71
2023/12/10 09:21:14;;;;;;;;;;;8.80;99.90;;;;;;5042903;28;19963;-71
2023/12/10 09:23:43;;;;;;;;;;;8.80;99.90;;;;;;5044941;28;19916;-71
2023/12/10 09:26:10;;;;;;;;;;;8.80;99.90;;;;;;5044245;28;19923;-70
2023/12/10 09:28:35;;;;;;;;;;;8.90;99.90;;;;;;5042416;28;19924;-73
2023/12/10 09:31:01;;;;;;;;;;;8.90;99.90;;;;;;5043853;28;19982;-72
2023/12/10 09:33:29;;;;;;;;;;;8.90;99.90;;;;;;5044296;28;19920;-72
2023/12/10 09:35:54;;;;;;;;;;;8.90;99.90;;;;;;5049627;28;21125;-73
2023/12/10 09:38:23;;;;;;;;;;;8.90;99.90;;;;;;5049163;28;20055;-72
2023/12/10 09:40:48;;;;;;;;;;;8.90;99.90;;;;;;5044430;28;20070;-72
2023/12/10 09:43:14;;;;;;;;;;;9.20;99.90;;;;;;5042775;28;19912;-72
2023/12/10 09:45:39;;;;;;;;;;;9.00;99.90;;;;;;5043882;28;20473;-72
2023/12/10 09:48:08;;;;;;;;;;;9.00;99.90;;;;;;5045457;28;19950;-72
2023/12/10 09:50:38;;;;;;;;;;;9.10;99.90;;;;;;5041416;28;20564;-74
2023/12/10 09:53:05;;;;;;;;;;;9.10;99.90;;;;;;5076892;27;20401;-72
2023/12/10 09:55:30;;;;;;;;;;;9.10;99.90;;;;;;5042931;28;20024;-73
2023/12/10 09:57:56;;;;;;;;;;;9.10;99.90;;;;;;5045353;28;20015;-72
2023/12/10 10:00:23;;;;;;;;;;;9.10;99.90;;;;;;5044740;28;19964;-73
2023/12/10 10:02:49;;;;;;;;;;;9.10;99.90;;;;;;5044248;28;20386;-74
2023/12/10 10:05:16;;;;;;;;;;;9.10;99.90;;;;;;5047003;28;20043;-70
2023/12/10 10:07:41;;;;;;;;;;;9.10;99.90;;;;;;5050213;28;20023;-70
2023/12/10 10:10:10;;;;;;;;;;;9.10;99.90;;;;;;5048891;28;19931;-70
2023/12/10 10:12:36;;;;;;;;;;;9.10;99.90;;;;;;5048845;28;20669;-70
2023/12/10 10:15:03;;;;;;;;;;;9.10;99.90;;;;;;5047835;28;19920;-70
2023/12/10 10:17:30;;;;;;;;;;;9.10;99.90;;;;;;5050090;28;19924;-69
2023/12/10 10:19:56;;;;;;;;;;;9.10;99.90;;;;;;5046387;28;19916;-70
2023/12/10 10:22:22;;;;;;;;;;;9.10;99.90;;;;;;5047805;28;19924;-69
2023/12/10 10:24:48;;;;;;;;;;;9.10;99.90;;;;;;5048356;28;20438;-69
2023/12/10 10:27:14;;;;;;;;;;;9.10;99.90;;;;;;5050578;28;19983;-70
2023/12/10 10:29:40;;;;;;;;;;;9.10;99.90;;;;;;5047147;28;20358;-70
2023/12/10 10:32:06;;;;;;;;;;;9.10;99.90;;;;;;5046582;28;19946;-70
2023/12/10 10:34:34;;;;;;;;;;;9.00;99.90;;;;;;5045161;28;20096;-70
2023/12/10 10:37:00;;;;;;;;;;;9.00;99.90;;;;;;5043380;28;19920;-70
2023/12/10 10:39:32;;;;;;;;;;;9.10;99.90;;;;;;5047039;28;20341;-70
2023/12/10 10:42:04;;;;;;;;;;;9.10;99.90;;;;;;5045575;28;19962;-70
2023/12/10 10:44:31;;;;;;;;;;;9.10;99.90;;;;;;5047704;28;19927;-70
2023/12/10 10:46:57;;;;;;;;;;;9.00;99.90;;;;;;5049296;28;19930;-70
2023/12/10 10:49:23;;;;;;;;;;;9.00;99.90;;;;;;5049435;28;20350;-70
2023/12/10 10:51:49;;;;;;;;;;;9.00;99.90;;;;;;5043597;28;19931;-70
2023/12/10 10:54:15;;;;;;;;;;;9.00;99.90;;;;;;5046773;28;20004;-70
2023/12/10 10:56:40;;;;;;;;;;;9.00;99.90;;;;;;5046436;28;19977;-70
2023/12/10 10:59:26;;;;;;;;;;;9.00;99.90;;;;;;5044821;28;20416;-70
2023/12/10 11:01:51;;;;;;;;;;;8.90;99.90;;;;;;5046823;28;19920;-70
2023/12/10 11:04:17;;;;;;;;;;;9.00;99.90;;;;;;5044569;28;19927;-70
2023/12/10 11:06:45;;;;;;;;;;;9.00;99.90;;;;;;5045520;28;19954;-70
2023/12/10 11:09:10;;;;;;;;;;;9.00;99.90;;;;;;5045231;28;19931;-70
2023/12/10 11:11:39;;;;;;;;;;;9.00;99.90;;;;;;5043350;28;19920;-70
2023/12/10 11:14:37;;;;;;;;;;;9.00;99.90;;;;;;5052973;28;19921;-70
2023/12/10 11:17:06;;;;;;;;;;;9.00;99.90;;;;;;5031956;28;20905;-69
2023/12/10 11:19:32;;;;;;;;;;;9.00;99.90;;;;;;5046256;28;19977;-69
2023/12/10 11:22:04;;;;;;;;;;;9.00;99.90;;;;;;5048633;28;20190;-69
2023/12/10 11:24:29;;;;;;;;;;;9.00;99.90;;;;;;5048149;28;19912;-69
2023/12/10 11:26:55;;;;;;;;;;;9.00;99.90;;;;;;5047450;28;19990;-70
2023/12/10 11:29:20;;;;;;;;;;;9.00;99.90;;;;;;5046346;28;19920;-69
2023/12/10 11:31:46;;;;;;;;;;;9.00;99.90;;;;;;5045947;28;20015;-69
2023/12/10 11:34:11;;;;;;;;;;;9.00;99.90;;;;;;5046069;28;19921;-69
2023/12/10 11:36:44;;;;;;;;;;;9.00;99.90;;;;;;5046369;28;19931;-69
2023/12/10 11:39:16;;;;;;;;;;;9.00;99.90;;;;;;5047414;28;19920;-69
2023/12/10 11:41:41;;;;;;;;;;;9.00;99.90;;;;;;5042658;28;19920;-70
2023/12/10 11:44:07;;;;;;;;;;;9.00;99.90;;;;;;5049776;28;19927;-70
2023/12/10 11:46:32;;;;;;;;;;;9.10;99.90;;;;;;5045587;28;19999;-70
2023/12/10 11:49:01;;;;;;;;;;;9.10;99.90;;;;;;5047843;28;19916;-70
2023/12/10 11:51:27;;;;;;;;;;;9.10;99.90;;;;;;5046957;28;20414;-70
2023/12/10 11:53:55;;;;;;;;;;;9.10;99.90;;;;;;5048933;28;19963;-69
2023/12/10 11:56:21;;;;;;;;;;;9.20;99.90;;;;;;5044040;28;19920;-70
2023/12/10 11:58:49;;;;;;;;;;;9.10;99.90;;;;;;5046571;28;20440;-70
2023/12/10 12:01:18;;;;;;;;;;;9.20;99.90;;;;;;5047253;28;20370;-70
2023/12/10 12:03:45;;;;;;;;;;;9.10;99.90;;;;;;5048224;28;19920;-70
2023/12/10 12:06:10;;;;;;;;;;;9.10;99.90;;;;;;5046114;28;19920;-69
2023/12/10 12:08:36;;;;;;;;;;;9.10;99.90;;;;;;5050396;28;20336;-69
2023/12/10 12:11:02;;;;;;;;;;;9.00;99.90;;;;;;5048222;28;19931;-70
2023/12/10 12:13:29;;;;;;;;;;;9.10;99.90;;;;;;5048488;28;19917;-70
2023/12/10 12:15:54;;;;;;;;;;;9.10;99.90;;;;;;5049109;28;19920;-69
2023/12/10 12:18:24;;;;;;;;;;;9.10;99.90;;;;;;5049869;28;19926;-69
2023/12/10 12:20:50;;;;;;;;;;;9.00;99.90;;;;;;5049877;28;19923;-69
2023/12/10 12:23:18;;;;;;;;;;;9.10;99.90;;;;;;5045321;28;19924;-70
2023/12/10 12:25:44;;;;;;;;;;;9.00;99.90;;;;;;5048638;28;19920;-69
2023/12/10 12:28:09;;;;;;;;;;;9.10;99.90;;;;;;5049336;28;19923;-70
2023/12/10 12:30:36;;;;;;;;;;;9.10;99.90;;;;;;5050948;28;19924;-69
2023/12/10 12:33:02;;;;;;;;;;;9.10;99.90;;;;;;5051981;28;19920;-70
2023/12/10 12:35:28;;;;;;;;;;;9.20;99.90;;;;;;5051181;28;20241;-69
2023/12/10 12:37:54;;;;;;;;;;;9.10;99.90;;;;;;5049856;28;20516;-69
2023/12/10 12:40:20;;;;;;;;;;;9.20;99.90;;;;;;5050600;28;21166;-69
2023/12/10 12:42:49;;;;;;;;;;;9.20;99.90;;;;;;5052791;28;19920;-69
2023/12/10 12:45:18;;;;;;;;;;;9.20;99.90;;;;;;5050267;28;19917;-70
2023/12/10 12:47:44;;;;;;;;;;;9.20;99.90;;;;;;5076801;22;19925;-94
2023/12/10 12:50:10;;;;;;;;;;;9.20;99.90;;;;;;5090050;28;19919;-93
2023/12/10 12:52:35;;;;;;;;;;;9.30;99.90;;;;;;5089089;28;20002;-94
2023/12/10 12:55:04;;;;;;;;;;;9.30;99.90;;;;;;5091902;28;20007;-94
2023/12/10 12:57:32;;;;;;;;;;;9.30;99.90;;;;;;5075644;28;20008;-92
2023/12/10 12:59:59;;;;;;;;;;;9.30;99.90;;;;;;5088531;28;19969;-94
2023/12/10 13:02:24;;;;;;;;;;;9.30;99.90;;;;;;5075444;28;19978;-93
2023/12/10 13:04:50;;;;;;;;;;;9.20;99.90;;;;;;5091542;28;19916;-95
2023/12/10 13:07:16;;;;;;;;;;;9.20;99.90;;;;;;5091511;28;19919;-94
2023/12/10 13:09:44;;;;;;;;;;;9.30;99.90;;;;;;5083804;28;19916;-94
2023/12/10 13:12:12;;;;;;;;;;;9.20;99.90;;;;;;5091549;28;19974;-94
2023/12/10 13:14:39;;;;;;;;;;;9.20;99.90;;;;;;5089514;28;19916;-93
2023/12/10 13:17:07;;;;;;;;;;;9.10;99.90;;;;;;5090388;28;19927;-93
2023/12/10 13:19:33;;;;;;;;;;;9.20;99.90;;;;;;5067483;28;19931;-93
2023/12/10 13:22:01;;;;;;;;;;;9.20;99.90;;;;;;5088133;28;20536;-93
2023/12/10 13:24:26;;;;;;;;;;;9.20;99.90;;;;;;5090448;28;19998;-91
2023/12/10 13:26:55;;;;;;;;;;;9.20;99.90;;;;;;5089177;28;19966;-93
2023/12/10 13:29:20;;;;;;;;;;;9.20;99.90;;;;;;5081525;28;20010;-93
2023/12/10 13:31:46;;;;;;;;;;;9.30;99.90;;;;;;5085659;28;20446;-92
2023/12/10 13:34:17;;;;;;;;;;;9.30;99.90;;;;;;5087783;28;19919;-93
2023/12/10 13:36:43;;;;;;;;;;;9.30;99.90;;;;;;5089666;28;19927;-93
2023/12/10 13:39:09;;;;;;;;;;;9.30;99.90;;;;;;5089122;28;19920;-92
2023/12/10 13:41:35;;;;;;;;;;;9.30;99.90;;;;;;5071849;28;19931;-93
2023/12/10 13:44:05;;;;;;;;;;;9.30;99.90;;;;;;5083855;28;19912;-93
2023/12/10 13:46:35;;;;;;;;;;;9.40;99.90;;;;;;5082478;28;20010;-95
2023/12/10 13:49:01;;;;;;;;;;;9.30;99.90;;;;;;5104132;27;20085;-92
2023/12/10 13:51:27;;;;;;;;;;;9.30;99.90;;;;;;5088777;28;19984;-92
2023/12/10 13:54:00;;;;;;;;;;;9.40;99.90;;;;;;5088092;28;19948;-94
2023/12/10 13:56:25;;;;;;;;;;;9.30;99.90;;;;;;5088528;28;19920;-91
2023/12/10 13:58:51;;;;;;;;;;;9.40;99.90;;;;;;5090546;28;19916;-92
2023/12/10 14:01:16;;;;;;;;;;;9.40;99.90;;;;;;5088191;28;19923;-91
2023/12/10 14:03:43;;;;;;;;;;;9.40;99.90;;;;;;5087962;28;19920;-95
2023/12/10 14:06:09;;;;;;;;;;;9.40;99.90;;;;;;5088249;28;19980;-92
2023/12/10 14:08:37;;;;;;;;;;;9.40;99.90;;;;;;5087102;28;20246;-93
2023/12/10 14:11:02;;;;;;;;;;;9.40;99.90;;;;;;5104659;27;20015;-92
2023/12/10 14:13:28;;;;;;;;;;;9.30;99.90;;;;;;5088474;28;20049;-91
2023/12/10 14:15:56;;;;;;;;;;;9.30;99.90;;;;;;5087635;28;20508;-91
2023/12/10 14:18:21;;;;;;;;;;;9.30;99.90;;;;;;5086467;28;19978;-93
2023/12/10 14:20:48;;;;;;;;;;;9.30;99.90;;;;;;5086200;28;19966;-93
2023/12/10 14:23:16;;;;;;;;;;;9.20;99.90;;;;;;5091043;28;19912;-94
2023/12/10 14:25:42;;;;;;;;;;;9.20;99.90;;;;;;5086657;28;19920;-91
2023/12/10 14:28:08;;;;;;;;;;;9.20;99.90;;;;;;5088954;28;19916;-90